Time;durP1;ratioP1;P1;durP2;ratioP2;P2;SDS_P1;SDS_P2;PMS_P1;PMS_P2;Temp;Humidity;BMP_temperature;BMP_pressure;BME280_temperature;BME280_humidity;BME280_pressure;Samples;Min_cycle;Max_cycle;Signal;HPM_P1;HPM_P2
2022/11/27 00:01:11;;;;;;;26.70;14.70;;;;;;;-143.84;71.59;45210.94;5089686;28;20436;-77
2022/11/27 00:03:39;;;;;;;21.73;13.43;;;;;;;-143.84;71.34;45193.78;5089172;28;21044;-77
2022/11/27 00:06:06;;;;;;;23.70;12.97;;;;;;;-143.84;71.10;45231.88;5089745;28;20480;-77
2022/11/27 00:08:34;;;;;;;23.13;14.30;;;;;;;-143.84;71.20;45205.22;5089595;28;20446;-77
2022/11/27 00:11:07;;;;;;;20.83;14.73;;;;;;;-143.84;71.31;45243.31;5089814;28;20436;-77
2022/11/27 00:13:35;;;;;;;25.87;14.47;;;;;;;-143.84;71.42;45216.63;5089832;28;20439;-77
2022/11/27 00:16:02;;;;;;;22.00;15.40;;;;;;;-143.84;71.47;45214.72;5089092;28;20445;-77
2022/11/27 00:18:29;;;;;;;26.50;15.30;;;;;;;-143.84;71.39;45207.13;5089414;28;20436;-77
2022/11/27 00:20:56;;;;;;;21.40;14.50;;;;;;;-143.84;70.92;45214.72;5089219;28;20436;-77
2022/11/27 00:23:23;;;;;;;24.00;16.00;;;;;;;-143.84;71.18;45218.53;5089124;28;20505;-77
2022/11/27 00:25:51;;;;;;;22.60;14.47;;;;;;;-143.84;70.97;45226.16;5088547;28;20497;-77
2022/11/27 00:28:20;;;;;;;23.10;15.93;;;;;;;-143.84;71.03;45210.94;5089241;28;20435;-77
2022/11/27 00:30:47;;;;;;;24.53;15.23;;;;;;;-143.84;71.00;45209.03;5089453;28;20484;-77
2022/11/27 00:33:14;;;;;;;20.73;14.27;;;;;;;-143.84;70.63;45224.25;5089124;28;20565;-77
2022/11/27 00:35:42;;;;;;;26.53;14.43;;;;;;;-143.84;70.85;45220.44;5089511;28;20443;-77
2022/11/27 00:38:09;;;;;;;21.37;15.40;;;;;;;-143.84;70.69;45218.53;5089334;28;20497;-78
2022/11/27 00:40:36;;;;;;;25.33;15.70;;;;;;;-143.84;70.80;45233.78;5089756;28;20436;-77
2022/11/27 00:43:03;;;;;;;28.87;17.13;;;;;;;-143.84;70.73;45224.25;5089834;28;20444;-77
2022/11/27 00:45:32;;;;;;;29.30;15.93;;;;;;;-143.84;70.97;45210.94;5089938;28;20538;-77
2022/11/27 00:47:59;;;;;;;25.60;15.73;;;;;;;-143.84;70.62;45214.72;5089563;28;20807;-77
2022/11/27 00:50:30;;;;;;;25.93;15.70;;;;;;;-143.84;70.62;45212.84;5102082;28;20454;-77
2022/11/27 00:52:57;;;;;;;28.40;16.80;;;;;;;-143.84;71.30;45197.59;5110298;28;20505;-77
2022/11/27 00:55:24;;;;;;;28.10;15.90;;;;;;;-143.84;71.10;45191.88;5110079;28;20432;-77
2022/11/27 00:57:52;;;;;;;25.20;15.67;;;;;;;-143.84;71.11;45220.44;5110185;28;20432;-77
2022/11/27 01:00:20;;;;;;;28.80;15.43;;;;;;;-143.84;71.98;45216.63;5110182;28;21097;-77
2022/11/27 01:02:48;;;;;;;25.17;16.20;;;;;;;-143.84;71.79;45231.88;5110205;28;20759;-77
2022/11/27 01:05:16;;;;;;;25.00;16.73;;;;;;;-143.84;71.84;45237.59;5110526;28;20475;-77
2022/11/27 01:07:43;;;;;;;23.03;14.77;;;;;;;-143.84;72.29;45212.84;5110428;28;20850;-77
2022/11/27 01:10:11;;;;;;;27.70;16.20;;;;;;;-143.84;71.89;45247.09;5109747;28;20484;-77
2022/11/27 01:12:38;;;;;;;27.23;16.17;;;;;;;-143.84;72.56;45212.84;5109713;28;20431;-77
2022/11/27 01:15:06;;;;;;;26.30;15.80;;;;;;;-143.84;72.39;45188.06;5111681;28;20525;-77
2022/11/27 01:17:33;;;;;;;28.33;16.40;;;;;;;-143.84;73.09;45207.13;5113830;28;20434;-77
2022/11/27 01:20:02;;;;;;;27.80;16.70;;;;;;;-143.84;73.16;45205.22;5114248;28;20446;-77
2022/11/27 01:22:29;;;;;;;26.60;17.03;;;;;;;-143.84;73.73;45199.50;5113838;28;20828;-77
2022/11/27 01:24:56;;;;;;;21.30;15.63;;;;;;;-143.84;73.44;45205.22;5113743;28;20940;-77
2022/11/27 01:27:23;;;;;;;25.50;16.60;;;;;;;-143.84;73.66;45235.69;5114130;28;20480;-78
2022/11/27 01:29:50;;;;;;;24.67;14.57;;;;;;;-143.84;73.93;45205.22;5113860;28;20444;-77
2022/11/27 01:32:17;;;;;;;25.10;16.27;;;;;;;-143.84;73.70;45170.94;5114138;28;20448;-77
2022/11/27 01:34:44;;;;;;;26.73;16.90;;;;;;;-143.84;74.07;45193.78;5113581;28;20443;-77
2022/11/27 01:37:13;;;;;;;25.40;15.10;;;;;;;-143.84;73.97;45237.59;5113564;28;20439;-77
2022/11/27 01:39:40;;;;;;;24.47;15.90;;;;;;;-143.84;74.86;45210.94;5112673;28;20446;-78
2022/11/27 01:42:10;;;;;;;25.17;16.07;;;;;;;-143.84;74.94;45229.97;5111279;28;20924;-78
2022/11/27 01:44:52;;;;;;;25.40;16.27;;;;;;;-143.84;74.93;45214.72;5112477;28;20498;-77
2022/11/27 01:47:30;;;;;;;28.87;17.50;;;;;;;-143.84;75.31;45235.69;5112670;28;20443;-78
2022/11/27 01:50:06;;;;;;;23.43;15.77;;;;;;;-143.84;75.26;45237.59;5112941;28;20431;-77
2022/11/27 01:52:37;;;;;;;29.80;15.80;;;;;;;-143.84;75.18;45235.69;5113423;28;20520;-77
2022/11/27 01:55:08;;;;;;;24.17;15.80;;;;;;;-143.84;75.64;45205.22;5113185;28;20466;-78
2022/11/27 01:57:40;;;;;;;20.90;14.00;;;;;;;-143.84;75.32;45212.84;5113656;28;20484;-78
2022/11/27 02:00:11;;;;;;;29.63;15.47;;;;;;;-143.84;75.27;45195.69;5113178;28;20452;-77
2022/11/27 02:02:39;;;;;;;20.27;13.50;;;;;;;-143.84;75.52;45233.78;5113261;28;20434;-77
2022/11/27 02:05:06;;;;;;;25.10;14.40;;;;;;;-143.84;75.69;45199.50;5112988;28;20435;-77
2022/11/27 02:07:35;;;;;;;24.67;14.80;;;;;;;-143.84;76.13;45197.59;5113175;28;20516;-76
2022/11/27 02:10:04;;;;;;;23.83;15.00;;;;;;;-143.84;76.09;45212.84;5113097;28;20884;-77
2022/11/27 02:12:36;;;;;;;22.90;14.20;;;;;;;-143.84;76.29;45210.94;5112865;28;20434;-77
2022/11/27 02:15:11;;;;;;;25.30;14.13;;;;;;;-143.84;76.26;45229.97;5112830;28;20445;-77
2022/11/27 02:17:46;;;;;;;20.20;13.30;;;;;;;-143.84;76.37;45216.63;5112660;28;20491;-77
2022/11/27 02:20:27;;;;;;;26.60;14.50;;;;;;;-143.84;76.17;45228.06;5112956;28;20438;-77
2022/11/27 02:23:22;;;;;;;21.87;14.13;;;;;;;-143.84;75.95;45212.84;5112363;28;20442;-77
2022/11/27 02:26:06;;;;;;;21.00;12.60;;;;;;;-143.84;75.70;45220.44;5112039;28;20995;-77
2022/11/27 02:28:43;;;;;;;19.53;12.70;;;;;;;-143.84;75.81;45220.44;5112193;28;20431;-77
2022/11/27 02:31:16;;;;;;;19.90;12.87;;;;;;;-143.84;76.31;45229.97;5112668;28;20773;-77
2022/11/27 02:33:50;;;;;;;17.07;12.50;;;;;;;-143.84;76.35;45195.69;5112255;28;20431;-77
2022/11/27 02:36:22;;;;;;;18.67;12.23;;;;;;;-143.84;76.15;45224.25;5112153;28;20963;-77
2022/11/27 02:38:55;;;;;;;24.10;14.23;;;;;;;-143.84;75.58;45210.94;5112241;28;20496;-77
2022/11/27 02:41:29;;;;;;;18.60;12.50;;;;;;;-143.84;75.45;45212.84;5112040;28;20864;-77
2022/11/27 02:43:59;;;;;;;17.73;12.80;;;;;;;-143.84;75.52;45224.25;5112049;28;20496;-77
2022/11/27 02:46:28;;;;;;;18.63;12.10;;;;;;;-143.84;75.90;45237.59;5111807;28;20475;-77
2022/11/27 02:48:58;;;;;;;21.50;12.53;;;;;;;-143.84;75.95;45231.88;5112305;28;20443;-75
2022/11/27 02:51:30;;;;;;;23.30;14.10;;;;;;;-143.84;75.55;45214.72;5112240;28;20439;-77
2022/11/27 02:54:00;;;;;;;18.07;12.00;;;;;;;-143.84;75.71;45243.31;5108310;28;20446;-77
2022/11/27 02:56:29;;;;;;;25.93;13.10;;;;;;;-143.84;75.81;45235.69;5110641;28;20452;-77
2022/11/27 02:59:00;;;;;;;19.93;13.87;;;;;;;-143.84;75.98;45224.25;5111383;28;20512;-77
2022/11/27 03:01:32;;;;;;;22.60;13.87;;;;;;;-143.84;75.65;45209.03;5111313;28;20940;-77
2022/11/27 03:04:02;;;;;;;21.60;12.57;;;;;;;-143.84;75.20;45231.88;5111194;28;20463;-77
2022/11/27 03:06:34;;;;;;;19.77;13.90;;;;;;;-143.84;75.59;45209.03;5111510;28;20475;-77
2022/11/27 03:09:07;;;;;;;18.53;13.23;;;;;;;-143.84;75.94;45222.34;5111445;28;20431;-77
2022/11/27 03:11:36;;;;;;;20.67;13.00;;;;;;;-143.84;76.16;45235.69;5111634;28;20443;-76
2022/11/27 03:14:07;;;;;;;25.03;15.67;;;;;;;-143.84;75.91;45210.94;5111906;28;20443;-77
2022/11/27 03:16:42;;;;;;;21.60;14.50;;;;;;;-143.84;75.94;45229.97;5111361;28;20912;-77
2022/11/27 03:19:16;;;;;;;26.90;14.97;;;;;;;-143.84;76.38;45205.22;5111896;28;20452;-77
2022/11/27 03:21:46;;;;;;;25.57;15.40;;;;;;;-143.84;75.98;45239.50;5111537;28;20438;-77
2022/11/27 03:24:14;;;;;;;25.97;14.47;;;;;;;-143.84;76.06;45228.06;5111367;28;20459;-77
2022/11/27 03:26:42;;;;;;;24.60;13.47;;;;;;;-143.84;75.88;45226.16;5111462;28;21003;-77
2022/11/27 03:29:13;;;;;;;24.20;14.50;;;;;;;-143.84;76.11;45220.44;5111816;28;20431;-77
2022/11/27 03:31:41;;;;;;;27.33;15.20;;;;;;;-143.84;76.23;45203.31;5101096;28;20444;-77
2022/11/27 03:34:09;;;;;;;24.80;15.20;;;;;;;-143.84;76.33;45247.09;5091021;28;20499;-77
2022/11/27 03:36:36;;;;;;;24.27;15.27;;;;;;;-143.84;76.61;45224.25;5090509;28;20452;-78
2022/11/27 03:39:04;;;;;;;25.50;14.63;;;;;;;-143.84;76.64;45237.59;5090874;28;20440;-77
2022/11/27 03:41:42;;;;;;;28.53;15.63;;;;;;;-143.84;76.51;45218.53;5091059;28;20440;-78
2022/11/27 03:44:20;;;;;;;26.43;15.27;;;;;;;-143.84;76.86;45228.06;5090859;28;20436;-78
2022/11/27 03:47:01;;;;;;;26.10;15.60;;;;;;;-143.84;76.72;45222.34;5091443;28;20482;-78
2022/11/27 03:49:39;;;;;;;22.37;14.77;;;;;;;-143.84;76.64;45184.25;5091107;28;20452;-78
2022/11/27 03:52:14;;;;;;;26.63;16.10;;;;;;;-143.84;76.56;45224.25;5091038;28;20439;-78
2022/11/27 03:54:52;;;;;;;26.00;15.33;;;;;;;-143.84;76.44;45214.72;5111268;28;20450;-78
2022/11/27 03:57:26;;;;;;;31.07;14.33;;;;;;;-143.84;76.11;45233.78;5111199;28;21009;-78
2022/11/27 03:59:59;;;;;;;24.17;15.17;;;;;;;-143.84;76.36;45224.25;5111222;28;20499;-78
2022/11/27 04:02:31;;;;;;;25.30;14.00;;;;;;;-143.84;76.49;45241.41;5111379;28;20439;-78
2022/11/27 04:04:58;;;;;;;23.77;15.10;;;;;;;-143.84;76.58;45231.88;5110895;28;21016;-78
2022/11/27 04:07:26;;;;;;;21.20;14.23;;;;;;;-143.84;76.80;45231.88;5096205;28;20544;-77
2022/11/27 04:09:53;;;;;;;28.03;14.83;;;;;;;-143.84;76.45;45216.63;5090704;28;20436;-77
2022/11/27 04:12:20;;;;;;;26.10;14.80;;;;;;;-143.84;76.83;45239.50;5090326;28;20452;-77
2022/11/27 04:14:47;;;;;;;23.30;15.20;;;;;;;-143.84;77.02;45231.88;5090633;28;20843;-77
2022/11/27 04:17:14;;;;;;;24.37;14.43;;;;;;;-143.84;76.92;45247.09;5090317;28;20443;-77
2022/11/27 04:19:42;;;;;;;23.90;15.63;;;;;;;-143.84;76.83;45220.44;5090359;28;20444;-77
2022/11/27 04:22:10;;;;;;;26.73;14.97;;;;;;;-143.84;77.63;45218.53;5090439;28;20501;-77
2022/11/27 04:24:37;;;;;;;24.03;15.40;;;;;;;-143.84;77.69;45228.06;5090208;28;20469;-77
2022/11/27 04:27:04;;;;;;;21.23;14.27;;;;;;;-143.84;77.96;45254.72;5090066;28;20524;-77
2022/11/27 04:29:31;;;;;;;20.03;14.30;;;;;;;-143.84;78.34;45201.41;5090228;28;20493;-77
2022/11/27 04:31:58;;;;;;;23.20;14.60;;;;;;;-143.84;78.48;45247.09;5090001;28;20500;-77
2022/11/27 04:34:25;;;;;;;22.80;14.70;;;;;;;-143.84;78.72;45231.88;5090329;28;20855;-78
2022/11/27 04:36:54;;;;;;;23.70;15.10;;;;;;;-143.84;78.69;45235.69;5090305;28;20428;-77
2022/11/27 04:39:21;;;;;;;23.90;14.03;;;;;;;-143.84;78.94;45209.03;5090563;28;20436;-77
2022/11/27 04:41:48;;;;;;;28.33;16.10;;;;;;;-143.84;79.35;45228.06;5090181;28;20436;-77
2022/11/27 04:44:15;;;;;;;22.90;15.23;;;;;;;-143.84;79.56;45252.81;5090109;28;20436;-77
2022/11/27 04:46:43;;;;;;;28.83;16.97;;;;;;;-143.84;79.78;45258.53;5089859;28;20475;-77
2022/11/27 04:49:10;;;;;;;25.43;15.20;;;;;;;-143.84;79.99;45256.63;5092234;28;20871;-77
2022/11/27 04:51:37;;;;;;;24.10;16.40;;;;;;;-143.84;80.18;45241.41;5094416;28;20871;-77
2022/11/27 04:54:06;;;;;;;29.17;17.03;;;;;;;-143.84;80.38;45231.88;5110724;28;20453;-77
2022/11/27 04:56:33;;;;;;;33.03;16.50;;;;;;;-143.84;80.50;45224.25;5114851;28;20447;-76
2022/11/27 04:59:01;;;;;;;25.23;14.60;;;;;;;-143.84;80.66;45229.97;5114461;28;20459;-77
2022/11/27 05:01:28;;;;;;;21.43;13.80;;;;;;;-143.84;80.56;45224.25;5114784;28;20446;-77
2022/11/27 05:03:55;;;;;;;24.17;14.67;;;;;;;-143.84;80.95;45201.41;5113661;28;20450;-77
2022/11/27 05:06:22;;;;;;;24.70;15.03;;;;;;;-143.84;81.08;45237.59;5110098;28;20475;-76
2022/11/27 05:08:50;;;;;;;25.93;15.83;;;;;;;-143.84;81.33;45260.44;5094274;28;20454;-76
2022/11/27 05:11:18;;;;;;;26.50;15.80;;;;;;;-143.84;81.36;45226.16;5114002;28;20438;-76
2022/11/27 05:13:45;;;;;;;24.90;15.90;;;;;;;-143.84;81.22;45199.50;5114215;28;20446;-77
2022/11/27 05:16:12;;;;;;;28.37;17.03;;;;;;;-143.84;81.43;45269.97;5114156;28;20442;-76
2022/11/27 05:18:40;;;;;;;28.27;17.13;;;;;;;-143.84;81.56;45220.44;5114398;28;20483;-76
2022/11/27 05:21:08;;;;;;;24.03;14.70;;;;;;;-143.84;81.24;45239.50;5114748;28;20454;-76
2022/11/27 05:23:35;;;;;;;20.27;13.17;;;;;;;-143.84;81.50;45218.53;5114549;28;21095;-79
2022/11/27 05:26:02;;;;;;;25.17;14.27;;;;;;;-143.84;81.07;45245.19;5099798;28;20847;-77
2022/11/27 05:28:31;;;;;;;20.70;13.40;;;;;;;-143.84;81.23;45233.78;5112521;28;20451;-78
2022/11/27 05:30:58;;;;;;;21.20;12.60;;;;;;;-143.84;80.73;45228.06;5113409;28;20454;-78
2022/11/27 05:33:25;;;;;;;16.70;10.53;;;;;;;-143.84;80.40;45239.50;5112672;28;20423;-76
2022/11/27 05:35:52;;;;;;;18.07;11.30;;;;;;;-143.84;79.93;45222.34;5113139;28;20773;-78
2022/11/27 05:38:20;;;;;;;23.13;11.70;;;;;;;-143.84;79.59;45254.72;5113349;28;20438;-78
2022/11/27 05:40:47;;;;;;;19.47;10.50;;;;;;;-143.84;79.14;45235.69;5113472;28;20430;-76
2022/11/27 05:43:14;;;;;;;18.17;12.40;;;;;;;-143.84;79.13;45239.50;5112774;28;20423;-78
2022/11/27 05:45:42;;;;;;;20.63;11.93;;;;;;;-143.84;78.54;45210.94;5114162;28;20503;-76
2022/11/27 05:48:09;;;;;;;19.97;11.73;;;;;;;-143.84;78.29;45241.41;5112947;28;21029;-74
2022/11/27 05:50:37;;;;;;;19.10;11.30;;;;;;;-143.84;78.22;45216.63;5114177;28;20423;-75
2022/11/27 05:53:04;;;;;;;22.30;13.03;;;;;;;-143.84;78.06;45235.69;5104617;28;20459;-74
2022/11/27 05:55:32;;;;;;;17.63;10.63;;;;;;;-143.84;77.97;45231.88;5107930;28;20440;-75
2022/11/27 05:57:59;;;;;;;13.90;9.43;;;;;;;-143.84;77.59;45247.09;5093986;28;20454;-76
2022/11/27 06:00:27;;;;;;;20.27;12.03;;;;;;;-143.84;77.35;45258.53;5093569;28;20973;-75
2022/11/27 06:02:56;;;;;;;17.83;11.80;;;;;;;-143.84;77.00;45224.25;5093763;28;20949;-75
2022/11/27 06:05:23;;;;;;;17.33;10.50;;;;;;;-143.84;77.26;45237.59;5093679;28;20911;-73
2022/11/27 06:07:50;;;;;;;16.93;11.73;;;;;;;-143.84;77.32;45231.88;5092089;28;20544;-75
2022/11/27 06:10:17;;;;;;;18.50;12.20;;;;;;;-143.84;76.92;45235.69;5092747;28;20438;-74
2022/11/27 06:12:45;;;;;;;22.10;11.03;;;;;;;-143.84;77.03;45239.50;5092914;28;20432;-75
2022/11/27 06:15:12;;;;;;;17.70;10.83;;;;;;;-143.84;76.76;45224.25;5092534;28;20428;-76
2022/11/27 06:17:39;;;;;;;21.63;11.80;;;;;;;-143.84;75.92;45207.13;5111795;28;20439;-76
2022/11/27 06:20:09;;;;;;;16.90;10.20;;;;;;;-143.84;75.89;45228.06;5112687;28;20450;-76
2022/11/27 06:22:36;;;;;;;18.13;11.27;;;;;;;-143.84;75.86;45226.16;5112327;28;20439;-76
2022/11/27 06:25:03;;;;;;;17.73;11.00;;;;;;;-143.84;75.64;45235.69;5112738;28;20493;-76
2022/11/27 06:27:33;;;;;;;16.07;9.40;;;;;;;-143.84;75.23;45201.41;5112398;28;20903;-77
2022/11/27 06:30:00;;;;;;;15.00;9.27;;;;;;;-143.84;75.20;45220.44;5112666;28;20499;-77
2022/11/27 06:32:27;;;;;;;18.60;10.93;;;;;;;-143.84;75.14;45212.84;5112927;28;20423;-77
2022/11/27 06:34:54;;;;;;;15.50;10.10;;;;;;;-143.84;75.35;45226.16;5111836;28;20446;-77
2022/11/27 06:37:23;;;;;;;18.77;9.93;;;;;;;-143.84;74.76;45224.25;5111181;28;21007;-76
2022/11/27 06:39:50;;;;;;;17.03;10.43;;;;;;;-143.84;75.16;45249.00;5111704;28;20786;-75
2022/11/27 06:42:18;;;;;;;12.70;8.70;;;;;;;-143.84;75.36;45226.16;5102189;27;20448;-77
2022/11/27 06:44:47;;;;;;;13.73;9.53;;;;;;;-143.84;75.04;45220.44;5105116;28;20450;-75
2022/11/27 06:47:14;;;;;;;16.70;9.57;;;;;;;-143.84;74.92;45216.63;5111524;28;20481;-76
2022/11/27 06:49:42;;;;;;;15.53;10.17;;;;;;;-143.84;74.53;45233.78;5111838;28;20442;-75
2022/11/27 06:52:09;;;;;;;14.47;9.30;;;;;;;-143.84;74.10;45239.50;5111180;28;20455;-76
2022/11/27 06:54:37;;;;;;;15.00;9.33;;;;;;;-143.84;74.10;45203.31;5110869;28;20507;-76
2022/11/27 06:57:04;;;;;;;14.83;8.90;;;;;;;-143.84;73.25;45222.34;5110854;28;20443;-76
2022/11/27 06:59:31;;;;;;;16.00;8.60;;;;;;;-143.84;73.16;45216.63;5111047;28;20431;-76
2022/11/27 07:01:59;;;;;;;13.50;8.83;;;;;;;-143.84;72.90;45220.44;5111553;28;20431;-76
2022/11/27 07:04:26;;;;;;;10.10;7.10;;;;;;;-143.84;72.31;45233.78;5112003;28;20809;-76
2022/11/27 07:06:54;;;;;;;11.57;7.80;;;;;;;-143.84;72.03;45207.13;5110748;28;20486;-76
2022/11/27 07:09:21;;;;;;;15.37;9.27;;;;;;;-143.84;71.62;45235.69;5111432;28;20442;-76
2022/11/27 07:11:50;;;;;;;12.43;8.20;;;;;;;-143.84;71.61;45214.72;5110669;28;20458;-77
2022/11/27 07:14:17;;;;;;;13.67;8.23;;;;;;;-143.84;71.41;45233.78;5110663;28;20835;-79
2022/11/27 07:16:44;;;;;;;15.27;8.50;;;;;;;-143.84;71.44;45220.44;5110430;28;20928;-77
2022/11/27 07:19:11;;;;;;;14.07;9.20;;;;;;;-143.84;71.00;45218.53;5111271;28;20443;-77
2022/11/27 07:21:39;;;;;;;11.00;6.40;;;;;;;-143.84;71.28;45209.03;5095062;28;20847;-77
2022/11/27 07:24:07;;;;;;;9.60;5.90;;;;;;;-143.84;70.56;45205.22;5090169;28;20545;-77
2022/11/27 07:26:34;;;;;;;12.50;7.30;;;;;;;-143.84;70.76;45214.72;5089537;28;20488;-77
2022/11/27 07:29:03;;;;;;;10.80;7.17;;;;;;;-143.84;70.56;45195.69;5090479;28;20444;-78
2022/11/27 07:31:31;;;;;;;11.47;7.30;;;;;;;-143.84;68.83;45220.44;5092070;28;20474;-77
2022/11/27 07:33:58;;;;;;;9.30;6.53;;;;;;;-143.84;68.70;45243.31;5091605;28;20809;-77
2022/11/27 07:36:27;;;;;;;11.00;6.37;;;;;;;-143.84;67.22;45228.06;5091363;28;20874;-78
2022/11/27 07:38:55;;;;;;;11.70;7.70;;;;;;;-143.84;67.40;45229.97;5091624;28;20440;-76
2022/11/27 07:41:22;;;;;;;12.50;7.80;;;;;;;-143.84;67.65;45201.41;5091398;28;20449;-75
2022/11/27 07:43:50;;;;;;;12.80;7.83;;;;;;;-143.84;68.07;45218.53;5091114;28;20436;-75
2022/11/27 07:46:20;;;;;;;15.87;7.67;;;;;;;-143.84;67.02;45209.03;5095742;28;21049;-75
2022/11/27 07:48:48;;;;;;;11.30;7.70;;;;;;;-143.84;67.53;45205.22;5110969;28;20540;-75
2022/11/27 07:51:16;;;;;;;9.80;7.40;;;;;;;-143.84;66.67;45193.78;5110314;28;20439;-75
2022/11/27 07:53:44;;;;;;;14.23;8.50;;;;;;;-143.84;66.30;45237.59;5108171;28;20442;-75
2022/11/27 07:56:13;;;;;;;9.70;7.00;;;;;;;-143.84;66.04;45201.41;5109669;28;20458;-75
2022/11/27 07:58:40;;;;;;;15.60;6.50;;;;;;;-143.84;65.25;45212.84;5111204;28;21039;-76
2022/11/27 08:01:08;;;;;;;14.70;8.93;;;;;;;-143.84;64.81;45207.13;5111207;28;20442;-75
2022/11/27 08:03:37;;;;;;;8.77;7.23;;;;;;;-143.84;65.73;45210.94;5110506;28;20442;-75
2022/11/27 08:06:06;;;;;;;14.97;8.83;;;;;;;-143.84;65.74;45222.34;5110702;28;20436;-76
2022/11/27 08:08:33;;;;;;;11.40;8.00;;;;;;;-143.84;64.86;45195.69;5110997;28;20473;-75
2022/11/27 08:11:00;;;;;;;18.93;9.53;;;;;;;-143.84;64.42;45226.16;5110219;28;20428;-75
2022/11/27 08:13:27;;;;;;;11.03;8.70;;;;;;;-143.84;64.95;45224.25;5110699;28;20505;-75
2022/11/27 08:15:55;;;;;;;11.50;8.10;;;;;;;-143.84;64.00;45222.34;5110432;28;21126;-75
2022/11/27 08:18:22;;;;;;;14.63;8.87;;;;;;;-143.84;64.38;45207.13;5099625;28;20887;-76
2022/11/27 08:20:50;;;;;;;17.90;8.43;;;;;;;-143.84;63.48;45195.69;5090015;28;20443;-76
2022/11/27 08:23:17;;;;;;;12.80;8.30;;;;;;;-143.84;63.91;45212.84;5090047;28;20495;-75
2022/11/27 08:25:44;;;;;;;17.17;8.63;;;;;;;-143.84;63.44;45195.69;5099955;28;20541;-75
2022/11/27 08:28:11;;;;;;;12.07;8.23;;;;;;;-143.84;63.63;45195.69;5108837;28;21144;-75
2022/11/27 08:30:40;;;;;;;12.37;8.77;;;;;;;-143.84;63.56;45148.09;5110848;28;20443;-76
2022/11/27 08:33:09;;;;;;;11.03;7.43;;;;;;;-143.84;63.37;45189.97;5110562;28;20954;-76
2022/11/27 08:35:36;;;;;;;10.20;7.67;;;;;;;-143.84;61.64;45229.97;5110482;28;20449;-76
2022/11/27 08:38:05;;;;;;;14.73;7.23;;;;;;;-143.84;61.47;45170.94;5095768;28;20477;-76
2022/11/27 08:40:32;;;;;;;13.17;9.20;;;;;;;-143.84;61.65;45195.69;5110997;28;20437;-76
2022/11/27 08:42:59;;;;;;;15.70;8.80;;;;;;;-143.84;60.41;45218.53;5110882;28;20995;-76
2022/11/27 08:45:26;;;;;;;14.60;8.77;;;;;;;-143.84;59.99;45203.31;5110285;28;20447;-76
2022/11/27 08:47:54;;;;;;;14.60;8.90;;;;;;;-143.84;59.39;45197.59;5094756;28;21038;-76
2022/11/27 08:50:21;;;;;;;9.60;7.30;;;;;;;-143.84;59.55;45191.88;5093693;28;20442;-76
2022/11/27 08:52:48;;;;;;;9.07;7.40;;;;;;;-143.84;60.07;45212.84;5108873;28;20441;-76
2022/11/27 08:55:17;;;;;;;10.90;7.70;;;;;;;-143.84;60.77;45199.50;5109950;28;20438;-76
2022/11/27 08:57:44;;;;;;;11.53;7.10;;;;;;;-143.84;60.12;45201.41;5100479;28;21740;-76
2022/11/27 09:00:12;;;;;;;15.73;8.70;;;;;;;-143.84;60.04;45199.50;5110401;28;20434;-76
2022/11/27 09:02:39;;;;;;;10.73;7.47;;;;;;;-143.84;60.37;45180.47;5110184;28;20422;-75
2022/11/27 09:05:07;;;;;;;14.73;8.30;;;;;;;-143.84;59.39;45199.50;5110030;28;20434;-75
2022/11/27 09:07:34;;;;;;;13.97;7.77;;;;;;;-143.84;57.68;45180.47;5109541;28;20489;-76
2022/11/27 09:10:01;;;;;;;12.93;8.20;;;;;;;-143.84;56.73;45188.06;5109641;28;20997;-72
2022/11/27 09:12:30;;;;;;;14.37;8.20;;;;;;;-143.84;57.51;45203.31;5109966;28;20431;-73
2022/11/27 09:14:57;;;;;;;10.00;7.47;;;;;;;-143.84;56.91;45186.16;5110023;28;21331;-73
2022/11/27 09:17:24;;;;;;;12.57;7.70;;;;;;;-143.84;56.60;45165.22;5109466;28;20468;-74
2022/11/27 09:19:51;;;;;;;6.60;5.90;;;;;;;-143.84;54.34;45184.25;5109417;28;21300;-74
2022/11/27 09:22:19;;;;;;;9.20;5.77;;;;;;;-143.84;54.29;45170.94;5109721;28;20504;-72
2022/11/27 09:24:46;;;;;;;11.47;6.40;;;;;;;-143.84;52.91;45203.31;5109369;28;20439;-74
2022/11/27 09:27:13;;;;;;;13.80;6.60;;;;;;;-143.84;50.84;45193.78;5108865;28;20427;-74
2022/11/27 09:29:42;;;;;;;10.87;6.30;;;;;;;-143.84;51.33;45167.13;5109383;28;20489;-74
2022/11/27 09:32:09;;;;;;;8.77;5.70;;;;;;;-143.84;50.48;45172.84;5109659;28;20937;-76
2022/11/27 09:34:36;;;;;;;7.47;5.53;;;;;;;-143.84;50.74;45199.50;5109282;28;20489;-76
2022/11/27 09:37:04;;;;;;;8.67;6.10;;;;;;;-143.84;50.40;45151.91;5112093;28;20939;-75
2022/11/27 09:39:32;;;;;;;11.30;7.23;;;;;;;-143.84;48.72;45193.78;5112432;28;20440;-74
2022/11/27 09:42:01;;;;;;;8.93;5.27;;;;;;;-143.84;48.64;45153.81;5112519;28;20432;-75
2022/11/27 09:44:38;;;;;;;9.00;6.07;;;;;;;-143.84;49.50;45146.19;5112986;28;20435;-73
2022/11/27 09:47:15;;;;;;;8.53;6.50;;;;;;;-143.84;48.67;45184.25;5113098;28;20423;-74
2022/11/27 09:49:47;;;;;;;10.83;6.77;;;;;;;-143.84;47.80;45174.75;5113503;28;20474;-74
2022/11/27 09:52:22;;;;;;;7.50;5.50;;;;;;;-143.84;49.39;45189.97;5113501;28;20459;-74
2022/11/27 09:54:56;;;;;;;13.63;6.30;;;;;;;-143.84;49.47;45167.13;5101433;28;20976;-74
2022/11/27 09:57:28;;;;;;;9.07;6.33;;;;;;;-143.84;49.85;45180.47;5112680;28;20485;-74
2022/11/27 10:00:00;;;;;;;12.50;6.30;;;;;;;-143.84;50.37;45170.94;5114147;28;20506;-74
2022/11/27 10:02:31;;;;;;;8.60;6.13;;;;;;;-143.84;48.18;45153.81;5113262;28;20500;-74
2022/11/27 10:04:59;;;;;;;13.70;7.03;;;;;;;-143.84;48.97;45159.50;5093013;28;20449;-74
2022/11/27 10:07:36;;;;;;;16.27;6.37;;;;;;;-143.84;49.48;45144.28;5111433;28;20921;-74
2022/11/27 10:10:25;;;;;;;10.93;6.70;;;;;;;-143.84;48.11;45155.69;5113860;28;20485;-75
2022/11/27 10:13:00;;;;;;;10.33;5.93;;;;;;;-143.84;47.00;45203.31;5097142;28;20442;-75
2022/11/27 10:15:41;;;;;;;6.83;5.80;;;;;;;-143.84;47.26;45167.13;5113518;28;20967;-75
2022/11/27 10:18:16;;;;;;;8.00;6.07;;;;;;;-143.84;46.69;45153.81;5113860;28;20497;-74
2022/11/27 10:20:48;;;;;;;9.53;6.03;;;;;;;-143.84;47.12;45191.88;5113871;28;20431;-75
2022/11/27 10:23:26;;;;;;;8.47;6.10;;;;;;;-143.84;45.61;45167.13;5112829;28;20457;-74
2022/11/27 10:25:56;;;;;;;14.57;6.70;;;;;;;-143.84;45.98;45159.50;5113087;28;20489;-74
2022/11/27 10:28:30;;;;;;;8.83;5.43;;;;;;;-143.84;46.56;45163.31;5112041;28;20461;-75
2022/11/27 10:31:02;;;;;;;7.97;6.00;;;;;;;-143.84;46.52;45167.13;5105013;28;20900;-74
2022/11/27 10:33:38;;;;;;;8.97;5.83;;;;;;;-143.84;46.76;45134.75;5111861;28;20438;-75
2022/11/27 10:36:11;;;;;;;8.93;6.33;;;;;;;-143.84;46.91;45172.84;5102585;28;20453;-75
2022/11/27 10:38:40;;;;;;;11.93;5.57;;;;;;;-143.84;46.28;45140.47;5110615;28;21004;-76
2022/11/27 10:41:12;;;;;;;6.00;4.93;;;;;;;-143.84;46.48;45167.13;5111439;28;20623;-77
2022/11/27 10:43:39;;;;;;;5.47;4.90;;;;;;;-143.84;47.39;45159.50;5108893;28;20438;-78
2022/11/27 10:46:14;;;;;;;11.37;6.60;;;;;;;-143.84;46.69;45165.22;5110753;28;20440;-78
2022/11/27 10:48:42;;;;;;;6.33;5.60;;;;;;;-143.84;46.28;45155.69;5108063;28;20479;-77
2022/11/27 10:51:15;;;;;;;7.37;5.07;;;;;;;-143.84;46.14;45157.59;5112647;28;20808;-78
2022/11/27 10:53:44;;;;;;;7.30;5.13;;;;;;;-143.84;46.24;45127.13;5112393;28;20460;-74
2022/11/27 10:56:40;;;;;;;6.10;5.07;;;;;;;-143.84;46.03;45167.13;5112559;28;20455;-77
2022/11/27 10:59:11;;;;;;;8.43;4.80;;;;;;;-143.84;46.51;45159.50;5110585;28;20451;-78
2022/11/27 11:01:43;;;;;;;5.37;4.87;;;;;;;-143.84;47.41;45170.94;5112399;28;20445;-79
2022/11/27 11:04:14;;;;;;;6.97;4.40;;;;;;;-143.84;47.49;45163.31;5112855;28;20440;-81
2022/11/27 11:06:44;;;;;;;10.70;5.97;;;;;;;-143.84;47.03;45170.94;5112792;28;20450;-77
2022/11/27 11:09:16;;;;;;;6.70;4.63;;;;;;;-143.84;46.60;45150.00;5112524;28;20478;-77
2022/11/27 11:11:43;;;;;;;5.67;5.07;;;;;;;-143.84;47.88;45159.50;5111108;28;20500;-75
2022/11/27 11:14:19;;;;;;;9.33;4.90;;;;;;;-143.84;48.90;45155.69;5110657;28;20820;-75
2022/11/27 11:16:47;;;;;;;6.07;4.90;;;;;;;-143.84;48.72;45155.69;5109028;28;20955;-75